Time;durP1;ratioP1;P1;durP2;ratioP2;P2;SDS_P1;SDS_P2;PMS_P1;PMS_P2;Temp;Humidity;BMP_temperature;BMP_pressure;BME280_temperature;BME280_humidity;BME280_pressure;Samples;Min_cycle;Max_cycle;Signal;HPM_P1;HPM_P2
2023/02/23 00:01:09;;;;;;;36.07;27.23;;;;;;;;;;5081316;28;20184;-53
2023/02/23 00:03:35;;;;;;;34.33;28.00;;;;;;;;;;5084762;28;20227;-52
2023/02/23 00:06:02;;;;;;;32.47;27.73;;;;;;;;;;5083603;28;20184;-53
2023/02/23 00:08:28;;;;;;;32.33;27.10;;;;;;;;;;5088074;28;20180;-53
2023/02/23 00:10:57;;;;;;;31.87;26.60;;;;;;;;;;5083859;28;20204;-52
2023/02/23 00:13:23;;;;;;;31.87;27.80;;;;;;;;;;5079922;28;20231;-53
2023/02/23 00:15:49;;;;;;;37.83;28.03;;;;;;;;;;5084287;28;20203;-52
2023/02/23 00:18:16;;;;;;;30.60;26.90;;;;;;;;;;5083649;28;20621;-53
2023/02/23 00:20:46;;;;;;;37.83;29.13;;;;;;;;;;5079801;28;20180;-54
2023/02/23 00:23:13;;;;;;;38.80;28.03;;;;;;;;;;5083575;28;20631;-53
2023/02/23 00:25:44;;;;;;;34.77;29.17;;;;;;;;;;5072303;28;20188;-53
2023/02/23 00:28:10;;;;;;;32.60;28.90;;;;;;;;;;5083175;28;20286;-52
2023/02/23 00:30:36;;;;;;;36.23;27.87;;;;;;;;;;5084567;28;20203;-53
2023/02/23 00:33:03;;;;;;;31.13;27.73;;;;;;;;;;5083782;28;20229;-53
2023/02/23 00:35:29;;;;;;;33.90;27.97;;;;;;;;;;5080118;28;20207;-52
2023/02/23 00:37:55;;;;;;;30.80;26.60;;;;;;;;;;5080657;28;20524;-53
2023/02/23 00:40:22;;;;;;;33.60;27.83;;;;;;;;;;5081227;28;20220;-52
2023/02/23 00:42:50;;;;;;;34.43;27.57;;;;;;;;;;5081561;28;20181;-53
2023/02/23 00:45:16;;;;;;;33.20;28.00;;;;;;;;;;5083425;28;20299;-53
2023/02/23 00:47:43;;;;;;;35.50;29.03;;;;;;;;;;5081747;28;20263;-52
2023/02/23 00:50:16;;;;;;;31.83;28.43;;;;;;;;;;5076082;28;20651;-53
2023/02/23 00:52:43;;;;;;;39.90;29.50;;;;;;;;;;5080037;28;20591;-53
2023/02/23 00:55:10;;;;;;;36.20;29.23;;;;;;;;;;5083856;28;20200;-53
2023/02/23 00:57:37;;;;;;;34.07;27.97;;;;;;;;;;5084558;28;20237;-52
2023/02/23 01:00:12;;;;;;;35.90;29.70;;;;;;;;;;5078507;28;20577;-53
2023/02/23 01:02:38;;;;;;;37.77;29.43;;;;;;;;;;5083596;28;20725;-52
2023/02/23 01:05:05;;;;;;;37.73;29.77;;;;;;;;;;5081955;28;20183;-53
2023/02/23 01:07:31;;;;;;;38.90;31.30;;;;;;;;;;5079699;28;20188;-53
2023/02/23 01:09:57;;;;;;;38.13;29.83;;;;;;;;;;5081829;28;20196;-53
2023/02/23 01:12:23;;;;;;;36.37;30.67;;;;;;;;;;5079838;28;20296;-53
2023/02/23 01:14:49;;;;;;;37.67;29.90;;;;;;;;;;5076029;28;20188;-52
2023/02/23 01:17:16;;;;;;;38.03;28.73;;;;;;;;;;5078324;28;20278;-53
2023/02/23 01:19:42;;;;;;;41.13;31.50;;;;;;;;;;5079103;28;20971;-53
2023/02/23 01:22:08;;;;;;;40.73;30.13;;;;;;;;;;5084025;28;20546;-53
2023/02/23 01:24:34;;;;;;;39.77;31.63;;;;;;;;;;5081670;28;20668;-53
2023/02/23 01:27:00;;;;;;;39.17;30.23;;;;;;;;;;5080372;28;20380;-53
2023/02/23 01:29:26;;;;;;;44.20;31.93;;;;;;;;;;5078792;28;20172;-53
2023/02/23 01:31:52;;;;;;;42.63;31.30;;;;;;;;;;5079436;28;20198;-53
2023/02/23 01:34:20;;;;;;;41.53;32.13;;;;;;;;;;5079914;28;20255;-53
2023/02/23 01:36:46;;;;;;;42.57;33.37;;;;;;;;;;5079913;28;20326;-53
2023/02/23 01:39:17;;;;;;;45.93;32.90;;;;;;;;;;5078706;28;20180;-54
2023/02/23 01:41:44;;;;;;;41.53;31.80;;;;;;;;;;5080269;28;20461;-54
2023/02/23 01:44:13;;;;;;;49.27;33.60;;;;;;;;;;5078506;28;20172;-53
2023/02/23 01:46:41;;;;;;;43.70;32.87;;;;;;;;;;5078491;28;20192;-53
2023/02/23 01:49:09;;;;;;;36.87;29.23;;;;;;;;;;5076877;28;20614;-53
2023/02/23 01:51:47;;;;;;;36.27;29.20;;;;;;;;;;5083332;28;20180;-53
2023/02/23 01:54:15;;;;;;;34.73;27.70;;;;;;;;;;5079665;28;20172;-53
2023/02/23 01:56:43;;;;;;;34.40;27.33;;;;;;;;;;5075062;28;20678;-53
2023/02/23 01:59:11;;;;;;;33.37;26.53;;;;;;;;;;5081675;28;20175;-53
2023/02/23 02:01:39;;;;;;;35.77;28.23;;;;;;;;;;5077516;28;20181;-53
2023/02/23 02:04:06;;;;;;;32.27;27.10;;;;;;;;;;5074090;28;20180;-53
2023/02/23 02:06:33;;;;;;;33.63;28.70;;;;;;;;;;5079567;28;20177;-53
2023/02/23 02:09:05;;;;;;;39.93;28.97;;;;;;;;;;5082819;28;20186;-52
2023/02/23 02:11:38;;;;;;;36.07;30.07;;;;;;;;;;5073332;28;20234;-53
2023/02/23 02:14:11;;;;;;;35.60;29.97;;;;;;;;;;5074477;28;20184;-52
2023/02/23 02:16:37;;;;;;;41.27;30.23;;;;;;;;;;5080708;28;20579;-53
2023/02/23 02:19:19;;;;;;;36.27;29.43;;;;;;;;;;5078984;28;20719;-53
2023/02/23 02:21:54;;;;;;;36.57;29.47;;;;;;;;;;5081696;28;20226;-53
2023/02/23 02:24:32;;;;;;;41.57;31.40;;;;;;;;;;5081690;28;20542;-53
2023/02/23 02:26:59;;;;;;;36.97;30.23;;;;;;;;;;5081484;28;20188;-53
2023/02/23 02:29:31;;;;;;;37.10;30.47;;;;;;;;;;5073043;28;20517;-53
2023/02/23 02:32:01;;;;;;;43.27;31.63;;;;;;;;;;5078746;28;20649;-53
2023/02/23 02:34:45;;;;;;;35.50;28.47;;;;;;;;;;5079183;28;20314;-54
2023/02/23 02:37:17;;;;;;;38.67;28.77;;;;;;;;;;5081373;28;20678;-53
2023/02/23 02:39:52;;;;;;;41.93;30.43;;;;;;;;;;5082436;28;20179;-53
2023/02/23 02:42:35;;;;;;;42.10;30.77;;;;;;;;;;5080804;28;20538;-53
2023/02/23 02:45:06;;;;;;;39.23;30.00;;;;;;;;;;5079237;28;20259;-53
2023/02/23 02:47:35;;;;;;;39.07;29.90;;;;;;;;;;5078749;28;20180;-53
2023/02/23 02:50:08;;;;;;;39.30;30.00;;;;;;;;;;5075485;28;20172;-53
2023/02/23 02:52:34;;;;;;;43.40;31.70;;;;;;;;;;5075290;28;20179;-53
2023/02/23 02:55:04;;;;;;;43.27;29.93;;;;;;;;;;5079058;28;20603;-53
2023/02/23 02:57:32;;;;;;;42.80;30.90;;;;;;;;;;5081127;28;20237;-53
2023/02/23 04:19:32;;;;;;;59.60;37.43;;;;;;;;;;5079754;28;20626;-53
2023/02/23 04:21:58;;;;;;;57.30;37.87;;;;;;;;;;5080231;28;20181;-52
2023/02/23 04:24:24;;;;;;;61.83;39.67;;;;;;;;;;5073641;28;20643;-53
2023/02/23 04:26:50;;;;;;;61.63;38.03;;;;;;;;;;5080965;28;20650;-52
2023/02/23 04:29:16;;;;;;;51.37;35.33;;;;;;;;;;5072652;28;20628;-52
2023/02/23 04:31:42;;;;;;;54.47;39.70;;;;;;;;;;5079434;28;20179;-53
2023/02/23 04:34:08;;;;;;;58.43;37.10;;;;;;;;;;5075158;28;20191;-53
2023/02/23 04:36:35;;;;;;;56.57;36.63;;;;;;;;;;5075015;28;20201;-52
2023/02/23 04:39:01;;;;;;;53.80;36.30;;;;;;;;;;5079125;28;20601;-53
2023/02/23 04:41:27;;;;;;;56.37;38.00;;;;;;;;;;5086494;28;20225;-53
2023/02/23 04:43:53;;;;;;;56.23;37.60;;;;;;;;;;5081122;28;20195;-52
2023/02/23 04:46:19;;;;;;;53.70;36.53;;;;;;;;;;5074799;28;20524;-53
2023/02/23 04:48:45;;;;;;;52.00;35.27;;;;;;;;;;5080543;28;20222;-53
2023/02/23 04:51:12;;;;;;;48.57;36.43;;;;;;;;;;5083364;28;20185;-55
2023/02/23 04:53:38;;;;;;;51.73;36.13;;;;;;;;;;5083179;28;20210;-55
2023/02/23 04:56:04;;;;;;;47.30;34.30;;;;;;;;;;5082361;28;20961;-55
2023/02/23 04:58:31;;;;;;;51.57;36.50;;;;;;;;;;5081297;28;20180;-55
2023/02/23 05:01:04;;;;;;;52.33;37.23;;;;;;;;;;5081002;28;20364;-55
2023/02/23 05:03:30;;;;;;;59.00;38.50;;;;;;;;;;5082468;28;20235;-55
2023/02/23 05:05:56;;;;;;;54.47;36.10;;;;;;;;;;5079499;28;20229;-55
2023/02/23 05:08:22;;;;;;;52.13;37.13;;;;;;;;;;5072230;28;20183;-55
2023/02/23 05:10:48;;;;;;;48.83;35.40;;;;;;;;;;5057807;28;20210;-55
2023/02/23 05:13:14;;;;;;;52.63;36.60;;;;;;;;;;5082225;28;20525;-55
2023/02/23 05:15:40;;;;;;;55.63;37.80;;;;;;;;;;5076146;28;20681;-55
2023/02/23 05:18:07;;;;;;;51.13;36.63;;;;;;;;;;5080899;28;20180;-55
2023/02/23 05:20:33;;;;;;;51.77;36.47;;;;;;;;;;5082289;28;20183;-55
2023/02/23 05:22:59;;;;;;;50.50;35.00;;;;;;;;;;5080509;28;20187;-55
2023/02/23 05:25:25;;;;;;;49.70;35.53;;;;;;;;;;5079257;28;20184;-55
2023/02/23 05:27:51;;;;;;;47.30;35.07;;;;;;;;;;5077250;28;20194;-55
2023/02/23 05:30:17;;;;;;;49.40;35.77;;;;;;;;;;5081449;28;20188;-55
2023/02/23 05:32:43;;;;;;;50.17;34.80;;;;;;;;;;5076669;28;20180;-55
2023/02/23 05:35:10;;;;;;;51.93;35.60;;;;;;;;;;5072844;28;20180;-55
2023/02/23 05:37:36;;;;;;;51.60;35.47;;;;;;;;;;5080238;28;20246;-55
2023/02/23 05:40:02;;;;;;;47.93;34.33;;;;;;;;;;5076590;28;20605;-55
2023/02/23 05:42:28;;;;;;;48.93;34.47;;;;;;;;;;5080760;28;20180;-55
2023/02/23 05:44:54;;;;;;;56.27;37.40;;;;;;;;;;5079581;28;20639;-55
2023/02/23 05:47:20;;;;;;;53.83;34.67;;;;;;;;;;5080755;28;20386;-55
2023/02/23 05:49:46;;;;;;;49.83;36.13;;;;;;;;;;5075543;28;20177;-55
2023/02/23 05:52:12;;;;;;;50.13;35.20;;;;;;;;;;5082555;28;20176;-55
2023/02/23 05:54:38;;;;;;;51.47;35.93;;;;;;;;;;5071881;28;20199;-55
2023/02/23 05:57:04;;;;;;;54.20;36.77;;;;;;;;;;5079203;28;20203;-55
2023/02/23 05:59:30;;;;;;;54.37;35.87;;;;;;;;;;5077842;28;20639;-55
2023/02/23 06:01:56;;;;;;;49.07;35.00;;;;;;;;;;5082485;28;20215;-55
2023/02/23 06:04:23;;;;;;;51.23;36.20;;;;;;;;;;5078658;28;20184;-55
2023/02/23 06:06:49;;;;;;;62.07;38.97;;;;;;;;;;5076949;28;20639;-55
2023/02/23 06:09:15;;;;;;;54.07;35.83;;;;;;;;;;5078957;28;20191;-55
2023/02/23 06:11:41;;;;;;;55.37;38.70;;;;;;;;;;5076997;28;20279;-55
2023/02/23 06:14:07;;;;;;;52.60;37.83;;;;;;;;;;5073367;28;20191;-55
2023/02/23 06:16:33;;;;;;;55.07;36.73;;;;;;;;;;5079678;28;20204;-55
2023/02/23 06:18:59;;;;;;;57.17;38.40;;;;;;;;;;5083141;28;20186;-55
2023/02/23 06:21:25;;;;;;;52.07;36.87;;;;;;;;;;5075504;28;20177;-55
2023/02/23 06:23:52;;;;;;;50.57;37.00;;;;;;;;;;5075710;28;20172;-55
2023/02/23 06:26:19;;;;;;;52.97;36.27;;;;;;;;;;5079277;28;20202;-55
2023/02/23 06:28:45;;;;;;;56.17;38.17;;;;;;;;;;5081201;28;20651;-55
2023/02/23 06:31:11;;;;;;;57.07;39.23;;;;;;;;;;5081047;28;20296;-55
2023/02/23 06:33:37;;;;;;;57.63;37.57;;;;;;;;;;5083761;28;20180;-55
2023/02/23 06:36:03;;;;;;;57.73;38.73;;;;;;;;;;5077305;28;20634;-55
2023/02/23 06:38:29;;;;;;;55.90;38.33;;;;;;;;;;5077160;28;20186;-55
2023/02/23 06:40:55;;;;;;;53.07;38.17;;;;;;;;;;5084104;28;20183;-55
2023/02/23 06:43:21;;;;;;;55.10;38.50;;;;;;;;;;5077691;28;20220;-55
2023/02/23 06:45:47;;;;;;;56.50;37.67;;;;;;;;;;5082305;28;20314;-55
2023/02/23 06:48:13;;;;;;;61.40;39.23;;;;;;;;;;5077353;28;20184;-55
2023/02/23 06:50:40;;;;;;;50.67;35.43;;;;;;;;;;5074248;28;20195;-55
2023/02/23 06:53:06;;;;;;;55.93;36.00;;;;;;;;;;5076783;28;20294;-55
2023/02/23 06:55:32;;;;;;;54.67;35.40;;;;;;;;;;5081547;28;20207;-55
2023/02/23 06:57:58;;;;;;;62.13;37.77;;;;;;;;;;5073260;28;20639;-55
2023/02/23 07:00:25;;;;;;;57.30;37.87;;;;;;;;;;5076376;28;20168;-55
2023/02/23 07:02:51;;;;;;;59.33;38.80;;;;;;;;;;5078981;28;20212;-56
2023/02/23 07:05:17;;;;;;;59.07;36.30;;;;;;;;;;5074117;28;20319;-55
2023/02/23 07:07:44;;;;;;;56.40;36.73;;;;;;;;;;5077645;28;21132;-55
2023/02/23 07:10:10;;;;;;;66.23;38.43;;;;;;;;;;5073289;28;20542;-56
2023/02/23 07:12:36;;;;;;;55.00;36.10;;;;;;;;;;5083952;28;20708;-56
2023/02/23 07:15:02;;;;;;;56.57;36.77;;;;;;;;;;5081040;28;20262;-55
2023/02/23 07:17:28;;;;;;;63.53;38.13;;;;;;;;;;5074970;28;20179;-55
2023/02/23 07:19:54;;;;;;;56.00;36.07;;;;;;;;;;5074403;28;20175;-55
2023/02/23 07:22:21;;;;;;;59.03;37.70;;;;;;;;;;5075290;28;20682;-54
2023/02/23 07:24:47;;;;;;;56.70;37.27;;;;;;;;;;5080335;28;20181;-55
2023/02/23 07:27:13;;;;;;;58.93;37.70;;;;;;;;;;5076609;28;20179;-55
2023/02/23 07:29:39;;;;;;;52.60;35.10;;;;;;;;;;5081425;28;20188;-55
2023/02/23 07:32:05;;;;;;;56.60;38.03;;;;;;;;;;5077497;28;20203;-55
2023/02/23 07:34:31;;;;;;;57.97;37.70;;;;;;;;;;5075227;28;20184;-55
2023/02/23 07:36:57;;;;;;;62.33;37.50;;;;;;;;;;5083204;28;20249;-55
2023/02/23 07:39:24;;;;;;;62.30;36.90;;;;;;;;;;5079329;28;20730;-55
2023/02/23 07:41:50;;;;;;;56.37;34.93;;;;;;;;;;5074912;28;20289;-55
2023/02/23 07:44:16;;;;;;;65.00;37.37;;;;;;;;;;5075020;28;20935;-56
2023/02/23 07:46:43;;;;;;;60.20;35.57;;;;;;;;;;5076436;28;20180;-56
2023/02/23 07:49:09;;;;;;;65.23;35.30;;;;;;;;;;5076927;28;20209;-56
2023/02/23 07:51:35;;;;;;;64.63;35.03;;;;;;;;;;5076104;28;20717;-56
2023/02/23 07:54:03;;;;;;;64.17;35.97;;;;;;;;;;5073526;28;20623;-56
2023/02/23 07:56:29;;;;;;;59.93;35.10;;;;;;;;;;5072098;28;20207;-55
2023/02/23 07:58:55;;;;;;;61.93;35.43;;;;;;;;;;5074483;28;20175;-55
2023/02/23 08:01:21;;;;;;;61.83;33.77;;;;;;;;;;5076060;28;20176;-55
2023/02/23 08:03:48;;;;;;;57.70;33.27;;;;;;;;;;5074434;28;20212;-55
2023/02/23 08:06:15;;;;;;;65.47;35.03;;;;;;;;;;5080153;28;20184;-54
2023/02/23 08:08:41;;;;;;;56.97;30.90;;;;;;;;;;5075722;28;20384;-54
2023/02/23 08:11:07;;;;;;;58.30;34.40;;;;;;;;;;5073361;28;20616;-54
2023/02/23 08:13:34;;;;;;;57.87;32.53;;;;;;;;;;5077928;28;20184;-54
2023/02/23 08:16:00;;;;;;;58.37;31.97;;;;;;;;;;5082615;28;20200;-55
2023/02/23 08:18:27;;;;;;;59.50;34.43;;;;;;;;;;5076749;28;20703;-54
2023/02/23 08:21:00;;;;;;;61.27;33.33;;;;;;;;;;5077470;28;20232;-55
2023/02/23 08:23:26;;;;;;;54.23;32.10;;;;;;;;;;5077183;28;20199;-54
2023/02/23 08:25:53;;;;;;;62.07;33.57;;;;;;;;;;5077914;28;20268;-54
2023/02/23 08:28:19;;;;;;;59.77;32.93;;;;;;;;;;5080841;28;20210;-54
2023/02/23 08:30:45;;;;;;;64.80;35.43;;;;;;;;;;5084123;28;20184;-54
2023/02/23 08:33:11;;;;;;;61.83;33.73;;;;;;;;;;5077186;28;21697;-54
2023/02/23 08:35:37;;;;;;;62.27;35.97;;;;;;;;;;5079101;28;20216;-54
2023/02/23 08:38:03;;;;;;;56.10;34.87;;;;;;;;;;5079376;28;20613;-54
2023/02/23 08:40:29;;;;;;;55.50;33.07;;;;;;;;;;5069313;28;20627;-54
2023/02/23 08:42:55;;;;;;;49.67;30.60;;;;;;;;;;5073520;28;20180;-55
2023/02/23 08:45:21;;;;;;;54.83;30.90;;;;;;;;;;5072696;28;20195;-54
2023/02/23 08:47:47;;;;;;;52.77;30.10;;;;;;;;;;5073572;28;20189;-54
2023/02/23 08:50:14;;;;;;;50.33;30.80;;;;;;;;;;5081958;28;20627;-54
2023/02/23 08:52:41;;;;;;;41.57;28.03;;;;;;;;;;5073534;28;20647;-54
2023/02/23 08:55:09;;;;;;;43.93;28.47;;;;;;;;;;5077225;28;20461;-54
2023/02/23 08:57:35;;;;;;;39.00;29.23;;;;;;;;;;5077454;28;20605;-55
2023/02/23 09:00:02;;;;;;;47.37;29.83;;;;;;;;;;5073135;28;20685;-54
2023/02/23 09:02:28;;;;;;;43.07;28.70;;;;;;;;;;5080499;28;20292;-54
2023/02/23 09:04:54;;;;;;;38.60;26.27;;;;;;;;;;5081863;28;20631;-54
2023/02/23 09:07:21;;;;;;;44.87;28.10;;;;;;;;;;5081988;28;20627;-54
2023/02/23 09:09:53;;;;;;;40.87;27.97;;;;;;;;;;5078386;28;20900;-54
2023/02/23 09:12:19;;;;;;;44.73;29.30;;;;;;;;;;5073829;28;20743;-54
2023/02/23 09:14:45;;;;;;;40.77;27.37;;;;;;;;;;5067100;28;20188;-54
2023/02/23 09:17:11;;;;;;;39.87;26.10;;;;;;;;;;5078557;28;20683;-54
2023/02/23 09:19:37;;;;;;;39.40;27.37;;;;;;;;;;5080600;28;20716;-54
2023/02/23 09:22:03;;;;;;;37.47;25.57;;;;;;;;;;5078028;28;20634;-54
2023/02/23 09:24:31;;;;;;;36.77;25.90;;;;;;;;;;5080088;28;20210;-54
2023/02/23 09:26:57;;;;;;;37.37;23.90;;;;;;;;;;5073232;28;20168;-54
2023/02/23 09:29:23;;;;;;;37.70;24.37;;;;;;;;;;5075128;28;20468;-54
2023/02/23 09:31:51;;;;;;;37.70;25.03;;;;;;;;;;5080023;28;20266;-54
2023/02/23 09:34:17;;;;;;;34.97;24.47;;;;;;;;;;5070716;28;20527;-54
2023/02/23 09:36:43;;;;;;;38.30;25.57;;;;;;;;;;5078827;28;20539;-54
2023/02/23 09:39:09;;;;;;;35.93;24.30;;;;;;;;;;5062250;28;20176;-54
2023/02/23 09:41:45;;;;;;;34.67;23.87;;;;;;;;;;5082506;28;20179;-54
2023/02/23 09:44:11;;;;;;;33.73;23.07;;;;;;;;;;5076551;28;20187;-54
2023/02/23 09:46:52;;;;;;;37.23;24.70;;;;;;;;;;5079619;28;20674;-54
2023/02/23 09:49:21;;;;;;;33.23;23.77;;;;;;;;;;5079178;28;20280;-53
2023/02/23 09:51:50;;;;;;;43.17;24.50;;;;;;;;;;5078799;28;20219;-54
2023/02/23 09:54:17;;;;;;;38.63;25.63;;;;;;;;;;5080592;28;20183;-54
2023/02/23 09:56:46;;;;;;;40.07;25.83;;;;;;;;;;5080840;28;20545;-54
2023/02/23 09:59:14;;;;;;;39.87;24.83;;;;;;;;;;5081601;28;20644;-54
2023/02/23 10:01:49;;;;;;;41.07;24.70;;;;;;;;;;5082087;28;20202;-54
2023/02/23 10:04:24;;;;;;;38.07;23.50;;;;;;;;;;5081589;28;20179;-54
2023/02/23 10:06:57;;;;;;;42.93;25.20;;;;;;;;;;5072194;28;20195;-54
2023/02/23 10:09:56;;;;;;;36.70;24.23;;;;;;;;;;5077674;28;20535;-54
2023/02/23 10:12:25;;;;;;;39.20;24.13;;;;;;;;;;5038490;28;20732;-54
2023/02/23 10:15:11;;;;;;;36.83;24.30;;;;;;;;;;5078148;28;20222;-54
2023/02/23 10:17:43;;;;;;;33.43;21.43;;;;;;;;;;5070797;28;20234;-54
2023/02/23 10:20:14;;;;;;;36.03;22.47;;;;;;;;;;5079940;28;20176;-54
2023/02/23 10:22:41;;;;;;;38.53;22.67;;;;;;;;;;5080651;28;20606;-54
2023/02/23 10:25:11;;;;;;;36.17;22.53;;;;;;;;;;5079444;28;20181;-54
2023/02/23 10:27:41;;;;;;;35.70;23.13;;;;;;;;;;5075912;28;20180;-54
2023/02/23 10:30:17;;;;;;;33.33;21.20;;;;;;;;;;5072042;28;20187;-54
2023/02/23 10:32:57;;;;;;;32.10;20.77;;;;;;;;;;5074444;28;20183;-54
2023/02/23 10:35:24;;;;;;;35.93;21.80;;;;;;;;;;5082235;28;20262;-54
2023/02/23 10:37:51;;;;;;;33.97;22.20;;;;;;;;;;5073437;28;20180;-54
2023/02/23 10:40:20;;;;;;;35.37;21.93;;;;;;;;;;5081894;28;20279;-54
2023/02/23 10:42:47;;;;;;;38.97;23.37;;;;;;;;;;5074942;28;20250;-55
2023/02/23 10:45:23;;;;;;;39.00;23.37;;;;;;;;;;5072077;28;20177;-54
2023/02/23 10:47:54;;;;;;;42.70;24.37;;;;;;;;;;5079505;28;20187;-54
2023/02/23 10:50:21;;;;;;;39.23;23.47;;;;;;;;;;5079551;28;20217;-54
2023/02/23 10:52:48;;;;;;;40.20;23.50;;;;;;;;;;5079381;28;20179;-54
2023/02/23 10:55:25;;;;;;;42.87;23.13;;;;;;;;;;5077301;28;20333;-54
2023/02/23 10:58:01;;;;;;;39.70;23.70;;;;;;;;;;5082572;28;20183;-54
2023/02/23 11:00:31;;;;;;;41.50;24.57;;;;;;;;;;5075060;28;20631;-55
2023/02/23 11:02:58;;;;;;;39.73;22.90;;;;;;;;;;5078491;28;20322;-54
2023/02/23 11:05:27;;;;;;;35.00;21.90;;;;;;;;;;5081251;28;20627;-54
2023/02/23 11:08:08;;;;;;;37.00;23.17;;;;;;;;;;5080706;28;20623;-55
2023/02/23 11:10:34;;;;;;;37.93;22.53;;;;;;;;;;5080642;28;20207;-54
2023/02/23 11:13:00;;;;;;;32.23;21.80;;;;;;;;;;5081719;28;20230;-54
2023/02/23 11:15:42;;;;;;;32.30;21.20;;;;;;;;;;5080026;28;20550;-54
2023/02/23 11:18:18;;;;;;;29.17;20.40;;;;;;;;;;5077713;28;20184;-54
2023/02/23 11:20:44;;;;;;;29.87;20.17;;;;;;;;;;5079215;28;20199;-54
2023/02/23 11:23:11;;;;;;;28.57;18.87;;;;;;;;;;5077066;28;20587;-54
2023/02/23 11:25:42;;;;;;;27.73;19.37;;;;;;;;;;5076505;28;20207;-54
2023/02/23 11:28:16;;;;;;;28.50;18.80;;;;;;;;;;5076888;28;20179;-54
2023/02/23 11:30:43;;;;;;;28.10;18.10;;;;;;;;;;5085842;28;20255;-54
2023/02/23 11:33:14;;;;;;;29.10;18.67;;;;;;;;;;5068564;28;20180;-55
2023/02/23 11:35:40;;;;;;;29.47;19.03;;;;;;;;;;5066814;28;20192;-54
2023/02/23 11:38:21;;;;;;;28.13;18.87;;;;;;;;;;5077043;28;20306;-54
2023/02/23 11:40:59;;;;;;;28.77;18.27;;;;;;;;;;5078300;28;20511;-54
2023/02/23 11:43:25;;;;;;;27.93;19.70;;;;;;;;;;5069842;28;20232;-54
2023/02/23 11:45:54;;;;;;;30.70;19.23;;;;;;;;;;5080637;28;20184;-54
2023/02/23 11:48:26;;;;;;;28.47;19.10;;;;;;;;;;5075127;28;20266;-54
2023/02/23 11:50:53;;;;;;;27.63;17.70;;;;;;;;;;5075536;28;20180;-55
2023/02/23 11:53:40;;;;;;;27.53;18.37;;;;;;;;;;5075822;28;20261;-54
2023/02/23 11:56:12;;;;;;;27.67;17.83;;;;;;;;;;5078364;28;20530;-54
2023/02/23 11:58:41;;;;;;;26.00;16.83;;;;;;;;;;5082050;28;20172;-54
2023/02/23 12:01:11;;;;;;;26.67;17.47;;;;;;;;;;5074488;28;20223;-54
2023/02/23 12:03:40;;;;;;;29.83;18.33;;;;;;;;;;5077755;28;20227;-54
2023/02/23 12:06:08;;;;;;;25.67;16.33;;;;;;;;;;5075791;28;20188;-53
2023/02/23 12:08:42;;;;;;;29.47;18.67;;;;;;;;;;5078207;28;20177;-53
2023/02/23 12:11:12;;;;;;;29.00;17.93;;;;;;;;;;5079867;28;20207;-53
2023/02/23 12:14:04;;;;;;;26.47;17.17;;;;;;;;;;5078115;28;20320;-53
2023/02/23 12:16:37;;;;;;;22.67;15.67;;;;;;;;;;5076810;28;20623;-53
2023/02/23 12:19:18;;;;;;;27.47;16.63;;;;;;;;;;5073729;28;20628;-53
2023/02/23 12:21:50;;;;;;;25.07;15.20;;;;;;;;;;5076114;28;20547;-53
2023/02/23 12:24:25;;;;;;;21.53;14.43;;;;;;;;;;5078535;28;20317;-52
2023/02/23 12:26:54;;;;;;;20.07;14.50;;;;;;;;;;5080534;28;20227;-52
2023/02/23 12:29:43;;;;;;;22.03;15.40;;;;;;;;;;5073124;28;20541;-53
2023/02/23 12:32:12;;;;;;;23.77;14.80;;;;;;;;;;5074812;28;20187;-53
2023/02/23 12:34:51;;;;;;;24.47;15.97;;;;;;;;;;5076603;28;20203;-53
2023/02/23 12:37:17;;;;;;;23.43;14.33;;;;;;;;;;5071976;28;20212;-53
2023/02/23 12:39:46;;;;;;;20.47;14.93;;;;;;;;;;5075180;28;20180;-53
2023/02/23 12:42:12;;;;;;;19.97;14.40;;;;;;;;;;5077864;28;20179;-52
2023/02/23 12:44:57;;;;;;;20.10;13.73;;;;;;;;;;5074448;28;20196;-52
2023/02/23 12:47:42;;;;;;;20.97;14.03;;;;;;;;;;5075645;28;20542;-52
2023/02/23 12:50:13;;;;;;;20.43;14.33;;;;;;;;;;5074519;28;20186;-52
2023/02/23 12:52:49;;;;;;;19.57;13.30;;;;;;;;;;5074341;28;20187;-53
2023/02/23 12:55:27;;;;;;;18.83;12.63;;;;;;;;;;5076432;28;20657;-53
2023/02/23 12:58:01;;;;;;;18.50;12.20;;;;;;;;;;5083306;28;20526;-53
2023/02/23 13:00:45;;;;;;;20.60;13.73;;;;;;;;;;5074757;28;20456;-53
2023/02/23 13:03:29;;;;;;;20.23;13.70;;;;;;;;;;5072143;28;20292;-53
2023/02/23 13:06:06;;;;;;;19.30;14.00;;;;;;;;;;5081787;28;20512;-53
2023/02/23 13:08:51;;;;;;;21.27;14.00;;;;;;;;;;5079966;28;20177;-53
2023/02/23 13:11:21;;;;;;;21.13;13.50;;;;;;;;;;5084451;28;20214;-52
2023/02/23 13:13:47;;;;;;;21.40;15.30;;;;;;;;;;5079760;28;20180;-53
2023/02/23 13:16:28;;;;;;;23.13;15.60;;;;;;;;;;5080278;28;20207;-52
2023/02/23 13:19:00;;;;;;;20.90;13.20;;;;;;;;;;5077251;28;20176;-53
2023/02/23 13:21:28;;;;;;;22.33;15.50;;;;;;;;;;5078890;28;20175;-52
2023/02/23 13:23:57;;;;;;;21.57;14.93;;;;;;;;;;5078284;28;20659;-52
2023/02/23 13:26:41;;;;;;;20.47;13.97;;;;;;;;;;5080205;28;20180;-53
2023/02/23 13:29:13;;;;;;;22.03;14.40;;;;;;;;;;5071152;28;20180;-53
2023/02/23 13:31:40;;;;;;;22.90;14.97;;;;;;;;;;5078104;28;20291;-53
2023/02/23 13:34:12;;;;;;;19.73;13.07;;;;;;;;;;5075095;28;20643;-52
2023/02/23 13:36:39;;;;;;;20.37;12.63;;;;;;;;;;5074230;28;20252;-53
2023/02/23 13:39:10;;;;;;;20.73;14.10;;;;;;;;;;5080278;28;20176;-53
2023/02/23 13:41:42;;;;;;;18.43;12.53;;;;;;;;;;5079614;28;20223;-53
2023/02/23 13:44:32;;;;;;;17.03;11.57;;;;;;;;;;5076695;28;20693;-54
2023/02/23 13:47:25;;;;;;;16.13;10.77;;;;;;;;;;5082650;28;20279;-53
2023/02/23 13:49:57;;;;;;;23.53;11.57;;;;;;;;;;5075480;28;20168;-60
2023/02/23 13:52:23;;;;;;;15.87;10.43;;;;;;;;;;5080740;28;20222;-52
2023/02/23 13:54:55;;;;;;;17.47;11.33;;;;;;;;;;5071270;28;20211;-52
2023/02/23 13:57:22;;;;;;;17.50;10.83;;;;;;;;;;5079808;28;20203;-53
2023/02/23 13:59:49;;;;;;;16.47;10.30;;;;;;;;;;5076587;28;20187;-54
2023/02/23 14:02:22;;;;;;;20.73;11.00;;;;;;;;;;5075126;28;20238;-54
2023/02/23 14:04:49;;;;;;;17.97;11.70;;;;;;;;;;5069177;28;20188;-53
2023/02/23 14:07:23;;;;;;;16.07;11.07;;;;;;;;;;5079137;28;20188;-53
2023/02/23 14:09:54;;;;;;;17.47;11.10;;;;;;;;;;5077122;28;20240;-53
2023/02/23 14:12:32;;;;;;;16.00;10.97;;;;;;;;;;5076202;28;20214;-52
2023/02/23 14:15:18;;;;;;;16.90;11.03;;;;;;;;;;5081209;28;20318;-54
2023/02/23 14:17:55;;;;;;;16.67;11.73;;;;;;;;;;5074156;28;20218;-56
2023/02/23 14:20:26;;;;;;;20.03;13.23;;;;;;;;;;5081593;28;20540;-53
2023/02/23 14:23:13;;;;;;;18.53;12.33;;;;;;;;;;5076935;28;20646;-53
2023/02/23 14:25:39;;;;;;;20.37;13.10;;;;;;;;;;5076860;28;20229;-53
2023/02/23 14:28:24;;;;;;;21.10;13.43;;;;;;;;;;5078140;28;20589;-53
2023/02/23 14:31:11;;;;;;;21.47;13.50;;;;;;;;;;5055278;28;20641;-53
2023/02/23 14:33:49;;;;;;;23.97;14.43;;;;;;;;;;5065352;28;20186;-53
2023/02/23 14:36:21;;;;;;;24.70;14.93;;;;;;;;;;5077635;28;20208;-53
2023/02/23 14:38:59;;;;;;;25.33;14.53;;;;;;;;;;5077422;28;20222;-53
2023/02/23 14:41:44;;;;;;;23.23;15.13;;;;;;;;;;5075444;28;20167;-53
2023/02/23 14:44:15;;;;;;;21.07;14.10;;;;;;;;;;5084422;28;20176;-53
2023/02/23 14:46:55;;;;;;;22.20;15.03;;;;;;;;;;5081606;28;20749;-53
2023/02/23 14:49:22;;;;;;;20.23;13.63;;;;;;;;;;5075334;28;20709;-53
2023/02/23 14:51:51;;;;;;;20.30;13.67;;;;;;;;;;5079645;28;20188;-52
2023/02/23 14:54:33;;;;;;;21.20;13.83;;;;;;;;;;5069689;28;20660;-53
2023/02/23 14:57:00;;;;;;;21.87;14.50;;;;;;;;;;5075758;28;20693;-52
2023/02/23 14:59:36;;;;;;;23.37;14.90;;;;;;;;;;5073140;28;20179;-52
2023/02/23 15:02:06;;;;;;;26.03;15.70;;;;;;;;;;5078171;28;20234;-53
2023/02/23 15:04:37;;;;;;;20.30;15.10;;;;;;;;;;5081937;28;20671;-53
2023/02/23 15:07:03;;;;;;;22.40;14.20;;;;;;;;;;5079030;28;20659;-53
2023/02/23 15:09:37;;;;;;;22.37;14.80;;;;;;;;;;5073318;28;20246;-53
2023/02/23 15:12:12;;;;;;;24.00;16.00;;;;;;;;;;5077624;28;20670;-57
2023/02/23 15:14:39;;;;;;;22.50;13.90;;;;;;;;;;5082881;28;21192;-53
2023/02/23 15:17:06;;;;;;;22.10;13.70;;;;;;;;;;5083797;28;20515;-53
2023/02/23 15:19:38;;;;;;;25.40;14.63;;;;;;;;;;5078079;28;20178;-53
2023/02/23 15:22:05;;;;;;;19.93;13.67;;;;;;;;;;5078873;28;20250;-53
2023/02/23 15:24:33;;;;;;;24.53;16.00;;;;;;;;;;5077780;28;20517;-53
2023/02/23 15:26:59;;;;;;;19.80;13.37;;;;;;;;;;5074251;28;20181;-53
2023/02/23 15:29:30;;;;;;;23.37;14.53;;;;;;;;;;5070223;28;20654;-54
2023/02/23 15:31:57;;;;;;;20.43;14.03;;;;;;;;;;5075721;28;20172;-54
2023/02/23 15:34:29;;;;;;;22.67;14.33;;;;;;;;;;5081119;28;20228;-53
2023/02/23 15:37:06;;;;;;;21.80;14.03;;;;;;;;;;5075922;28;20196;-53
2023/02/23 15:39:36;;;;;;;24.20;14.57;;;;;;;;;;5075428;28;20183;-54
2023/02/23 15:42:03;;;;;;;20.87;14.33;;;;;;;;;;5077468;28;20173;-53
2023/02/23 15:44:31;;;;;;;25.40;15.10;;;;;;;;;;5081917;28;20187;-53
2023/02/23 15:47:03;;;;;;;25.87;15.30;;;;;;;;;;5084781;28;20651;-53
2023/02/23 15:49:31;;;;;;;22.93;14.47;;;;;;;;;;5078690;28;20226;-53